Time;durP1;ratioP1;P1;durP2;ratioP2;P2;SDS_P1;SDS_P2;PMS_P1;PMS_P2;Temp;Humidity;BMP_temperature;BMP_pressure;BME280_temperature;BME280_humidity;BME280_pressure;Samples;Min_cycle;Max_cycle;Signal;HPM_P1;HPM_P2
2022/04/15 00:01:25;;;;;;;22.75;13.32;;;7.30;99.90;;;;;;5073823;28;20044;-71
2022/04/15 00:03:51;;;;;;;20.30;13.55;;;7.30;99.90;;;;;;5064694;28;20047;-72
2022/04/15 00:06:18;;;;;;;23.55;13.45;;;7.30;99.90;;;;;;5052671;28;20558;-72
2022/04/15 00:08:44;;;;;;;20.70;13.90;;;7.20;99.90;;;;;;5071816;28;20358;-72
2022/04/15 00:11:10;;;;;;;17.67;12.95;;;7.20;99.90;;;;;;5065944;28;20051;-72
2022/04/15 00:13:36;;;;;;;20.77;12.52;;;7.20;99.90;;;;;;5068158;28;20383;-72
2022/04/15 00:16:03;;;;;;;17.73;12.15;;;7.20;99.90;;;;;;5070064;28;20052;-72
2022/04/15 00:18:29;;;;;;;29.13;13.98;;;7.10;99.90;;;;;;5054149;28;20053;-72
2022/04/15 00:20:55;;;;;;;28.58;13.15;;;7.10;99.90;;;;;;5051892;28;20053;-72
2022/04/15 00:23:24;;;;;;;23.20;13.80;;;7.10;99.90;;;;;;5085055;28;20055;-72
2022/04/15 00:25:51;;;;;;;20.73;12.82;;;7.10;99.90;;;;;;5068465;28;20044;-72
2022/04/15 00:28:17;;;;;;;25.23;14.90;;;7.10;99.90;;;;;;5071788;28;20109;-71
2022/04/15 00:30:43;;;;;;;17.30;13.20;;;7.10;99.90;;;;;;5068787;28;20830;-72
2022/04/15 00:33:08;;;;;;;25.35;14.88;;;7.20;99.90;;;;;;5070512;28;20484;-72
2022/04/15 00:35:34;;;;;;;24.45;13.50;;;7.20;99.90;;;;;;5069774;28;20486;-71
2022/04/15 00:38:00;;;;;;;28.40;15.38;;;7.30;99.90;;;;;;5073391;28;20047;-72
2022/04/15 00:40:26;;;;;;;26.98;14.40;;;7.20;99.90;;;;;;5070332;28;20051;-71
2022/04/15 00:42:52;;;;;;;21.42;13.88;;;7.30;99.90;;;;;;5051522;28;20125;-72
2022/04/15 00:45:18;;;;;;;23.10;14.10;;;7.30;99.90;;;;;;5068822;28;20087;-71
2022/04/15 00:47:54;;;;;;;21.52;14.05;;;7.30;99.90;;;;;;5070093;28;20079;-72
2022/04/15 00:50:29;;;;;;;23.95;14.25;;;7.40;99.90;;;;;;5067628;28;20052;-72
2022/04/15 00:52:58;;;;;;;29.52;15.57;;;7.40;99.90;;;;;;5069827;28;20048;-72
2022/04/15 00:55:25;;;;;;;21.92;14.85;;;7.40;99.90;;;;;;5070516;28;20624;-72
2022/04/15 00:57:58;;;;;;;25.52;15.13;;;7.50;99.90;;;;;;5066086;28;20041;-72
2022/04/15 01:00:26;;;;;;;25.27;12.85;;;7.50;99.90;;;;;;5067411;28;20060;-72
2022/04/15 01:02:51;;;;;;;24.42;15.23;;;7.50;99.90;;;;;;5070707;28;20036;-72
2022/04/15 01:05:18;;;;;;;21.90;14.63;;;7.50;99.90;;;;;;5071008;28;20094;-72
2022/04/15 01:07:48;;;;;;;27.55;15.95;;;7.60;99.90;;;;;;5070147;28;20044;-72
2022/04/15 01:10:15;;;;;;;31.20;14.90;;;7.60;99.90;;;;;;5070583;28;20471;-71
2022/04/15 01:12:45;;;;;;;28.30;15.48;;;7.70;99.90;;;;;;5069085;28;20098;-72
2022/04/15 01:15:15;;;;;;;32.80;14.68;;;7.70;99.90;;;;;;5069393;28;20539;-72
2022/04/15 01:17:41;;;;;;;21.55;15.80;;;7.70;99.90;;;;;;5070634;28;20091;-72
2022/04/15 01:20:09;;;;;;;26.42;16.13;;;7.80;99.90;;;;;;5070025;28;20942;-72
2022/04/15 01:22:41;;;;;;;39.15;14.10;;;7.80;99.90;;;;;;5038721;28;20098;-72
2022/04/15 01:25:10;;;;;;;25.85;15.85;;;7.80;99.90;;;;;;5068883;28;20044;-72
2022/04/15 01:27:38;;;;;;;21.85;15.90;;;7.80;99.90;;;;;;5057313;28;20563;-71
2022/04/15 01:30:05;;;;;;;28.77;15.25;;;7.90;99.90;;;;;;5056802;28;20049;-72
2022/04/15 01:32:31;;;;;;;26.33;14.15;;;7.90;99.90;;;;;;5069915;28;20040;-72
2022/04/15 01:34:57;;;;;;;25.35;14.32;;;7.90;99.90;;;;;;5049528;28;20405;-72
2022/04/15 01:37:23;;;;;;;23.75;14.07;;;7.90;99.90;;;;;;5048917;28;20459;-72
2022/04/15 01:39:50;;;;;;;25.65;14.82;;;7.90;99.90;;;;;;5057301;28;20090;-72
2022/04/15 01:42:16;;;;;;;24.55;15.75;;;8.00;99.90;;;;;;5052009;28;20528;-72
2022/04/15 01:44:43;;;;;;;20.38;13.85;;;8.00;99.90;;;;;;5069985;28;20052;-72
2022/04/15 01:47:10;;;;;;;18.38;13.52;;;8.00;99.90;;;;;;5065045;28;20048;-72
2022/04/15 01:49:36;;;;;;;25.15;14.13;;;8.00;99.90;;;;;;5064420;28;20071;-72
2022/04/15 01:52:02;;;;;;;25.40;14.15;;;8.00;99.90;;;;;;5068502;28;20508;-72
2022/04/15 01:54:28;;;;;;;25.50;14.15;;;8.00;99.90;;;;;;5065335;28;20082;-72
2022/04/15 01:56:54;;;;;;;24.52;14.93;;;8.00;99.90;;;;;;5069644;28;20048;-72
2022/04/15 01:59:20;;;;;;;23.83;13.50;;;8.10;99.90;;;;;;5069051;28;20102;-72
2022/04/15 02:01:46;;;;;;;29.50;15.45;;;8.10;99.90;;;;;;5068905;28;20033;-72
2022/04/15 02:04:12;;;;;;;23.70;14.88;;;8.10;99.90;;;;;;5069210;28;20055;-72
2022/04/15 02:06:37;;;;;;;18.48;13.38;;;8.20;99.90;;;;;;5069453;28;20478;-72
2022/04/15 02:09:03;;;;;;;21.70;14.23;;;8.20;99.90;;;;;;5070020;28;20055;-72
2022/04/15 02:11:29;;;;;;;27.77;14.05;;;8.20;99.90;;;;;;5068788;28;20044;-72
2022/04/15 02:13:55;;;;;;;20.20;14.27;;;8.20;99.90;;;;;;5069059;28;20072;-72
2022/04/15 02:16:20;;;;;;;27.38;14.52;;;8.20;99.90;;;;;;5069105;28;20055;-72
2022/04/15 02:18:46;;;;;;;20.25;13.82;;;8.20;99.90;;;;;;5067406;28;20043;-72
2022/04/15 02:21:12;;;;;;;30.38;14.18;;;8.20;99.90;;;;;;5068611;28;20045;-72
2022/04/15 02:23:37;;;;;;;24.10;14.60;;;8.30;99.90;;;;;;5067639;28;20051;-72
2022/04/15 02:26:03;;;;;;;28.20;15.40;;;8.30;99.90;;;;;;5067455;28;20074;-72
2022/04/15 02:28:28;;;;;;;32.80;14.57;;;8.30;99.90;;;;;;5068768;28;20048;-72
2022/04/15 02:30:54;;;;;;;22.73;14.93;;;8.30;99.90;;;;;;5069236;28;20044;-71
2022/04/15 02:33:20;;;;;;;23.15;13.27;;;8.30;99.90;;;;;;5067569;28;20143;-72
2022/04/15 02:35:46;;;;;;;26.13;13.68;;;8.30;99.90;;;;;;5068672;28;20055;-72
2022/04/15 02:38:11;;;;;;;25.10;12.10;;;8.30;99.90;;;;;;5066336;28;20444;-72
2022/04/15 02:40:37;;;;;;;21.15;12.30;;;8.30;99.90;;;;;;5068388;28;20051;-72
2022/04/15 02:43:03;;;;;;;17.90;12.27;;;8.30;99.90;;;;;;5068440;28;20476;-72
2022/04/15 02:45:29;;;;;;;21.23;13.90;;;8.40;99.90;;;;;;5065759;28;20589;-72
2022/04/15 02:47:56;;;;;;;18.38;13.35;;;8.40;99.90;;;;;;5068482;28;20037;-72
2022/04/15 02:50:22;;;;;;;21.40;12.77;;;8.40;99.90;;;;;;5070015;28;20083;-72
2022/04/15 02:52:49;;;;;;;18.38;13.52;;;8.40;99.90;;;;;;5066106;28;20080;-72
2022/04/15 02:55:14;;;;;;;25.00;13.68;;;8.40;99.90;;;;;;5064010;28;20052;-72
2022/04/15 02:57:40;;;;;;;21.45;13.07;;;8.40;99.90;;;;;;5067666;28;20144;-72
2022/04/15 03:00:06;;;;;;;19.30;13.95;;;8.40;99.90;;;;;;5068273;28;20055;-72
2022/04/15 03:02:32;;;;;;;18.30;12.88;;;8.40;99.90;;;;;;5068669;28;20044;-72
2022/04/15 03:04:59;;;;;;;15.55;11.65;;;8.40;99.90;;;;;;5067492;28;20086;-72
2022/04/15 03:07:25;;;;;;;22.38;13.93;;;8.40;99.90;;;;;;5050117;28;20041;-71
2022/04/15 03:09:50;;;;;;;18.63;13.02;;;8.40;99.90;;;;;;5066765;28;20590;-72
2022/04/15 03:12:16;;;;;;;18.60;12.82;;;8.50;99.90;;;;;;5067457;28;20041;-72
2022/04/15 03:14:42;;;;;;;22.15;13.02;;;8.50;99.90;;;;;;5068501;28;20048;-72
2022/04/15 03:17:08;;;;;;;17.05;12.40;;;8.50;99.90;;;;;;5068166;28;20044;-72
2022/04/15 03:19:33;;;;;;;21.80;12.05;;;8.50;99.90;;;;;;5068663;28;20045;-72
2022/04/15 03:22:00;;;;;;;24.90;14.50;;;8.50;99.90;;;;;;5067417;28;20072;-72
2022/04/15 03:24:26;;;;;;;23.52;13.10;;;8.60;99.90;;;;;;5067148;28;20044;-72
2022/04/15 03:26:51;;;;;;;20.17;14.43;;;8.50;99.90;;;;;;5066856;28;20048;-72
2022/04/15 03:29:17;;;;;;;22.65;12.25;;;8.50;99.90;;;;;;5068449;28;20040;-72
2022/04/15 03:31:43;;;;;;;22.90;12.80;;;8.50;99.90;;;;;;5069136;28;20048;-72
2022/04/15 03:34:09;;;;;;;18.98;12.93;;;8.60;99.90;;;;;;5070915;28;20052;-71
2022/04/15 03:36:34;;;;;;;15.02;11.98;;;8.50;99.90;;;;;;5070495;28;20436;-73
2022/04/15 03:39:00;;;;;;;18.77;12.20;;;8.50;99.90;;;;;;5072148;28;20090;-73
2022/04/15 03:41:26;;;;;;;15.63;10.88;;;8.60;99.90;;;;;;5051610;28;20044;-73
2022/04/15 03:43:53;;;;;;;21.42;11.95;;;8.60;99.90;;;;;;5059976;28;20040;-73
2022/04/15 03:46:19;;;;;;;16.35;11.15;;;8.60;99.90;;;;;;5062185;28;20048;-74
2022/04/15 03:48:45;;;;;;;21.48;13.07;;;8.60;99.90;;;;;;5061121;28;20125;-73
2022/04/15 03:51:11;;;;;;;19.65;11.13;;;8.60;99.90;;;;;;5059469;28;20087;-73
2022/04/15 03:53:39;;;;;;;17.35;10.85;;;8.60;99.90;;;;;;5064904;28;20379;-73
2022/04/15 03:56:07;;;;;;;19.00;11.02;;;8.60;99.90;;;;;;5064461;28;20242;-73
2022/04/15 03:58:33;;;;;;;15.63;10.52;;;8.60;99.90;;;;;;5059594;28;20057;-73
2022/04/15 04:00:59;;;;;;;23.20;13.07;;;8.60;99.90;;;;;;5071810;28;20103;-73
2022/04/15 04:03:25;;;;;;;21.60;13.00;;;8.60;99.90;;;;;;5073134;28;20509;-73
2022/04/15 04:05:51;;;;;;;27.65;15.07;;;8.60;99.90;;;;;;5063536;28;20490;-73
2022/04/15 04:08:17;;;;;;;31.42;19.45;;;8.60;99.90;;;;;;5073623;28;20052;-73
2022/04/15 04:10:42;;;;;;;31.08;20.05;;;8.60;99.90;;;;;;5072756;28;20645;-73
2022/04/15 04:13:08;;;;;;;25.05;16.92;;;8.60;99.90;;;;;;5063078;28;20509;-73
2022/04/15 04:15:34;;;;;;;29.90;18.60;;;8.60;99.90;;;;;;5072754;28;20049;-73
2022/04/15 04:18:00;;;;;;;28.67;19.25;;;8.60;99.90;;;;;;5072060;28;20032;-73
2022/04/15 04:20:26;;;;;;;30.70;19.52;;;8.60;99.90;;;;;;5072287;28;20094;-73
2022/04/15 04:22:52;;;;;;;28.75;18.02;;;8.60;99.90;;;;;;5072161;28;20070;-73
2022/04/15 04:25:18;;;;;;;28.60;17.85;;;8.60;99.90;;;;;;5072457;28;20052;-73
2022/04/15 04:27:43;;;;;;;28.60;18.58;;;8.60;99.90;;;;;;5072588;28;20041;-72
2022/04/15 04:30:14;;;;;;;20.83;17.83;;;8.60;99.90;;;;;;5071382;28;20032;-73
2022/04/15 04:32:42;;;;;;;25.83;18.95;;;8.60;99.90;;;;;;5071153;28;20095;-73
2022/04/15 04:35:08;;;;;;;27.38;16.85;;;8.50;99.90;;;;;;5054060;28;20080;-73
2022/04/15 04:37:34;;;;;;;25.88;16.45;;;8.50;99.90;;;;;;5066825;28;20118;-72
2022/04/15 04:40:00;;;;;;;25.23;17.00;;;8.50;99.90;;;;;;5070169;28;20061;-71
2022/04/15 04:42:27;;;;;;;23.88;16.92;;;8.50;99.90;;;;;;5070041;28;20048;-73
2022/04/15 04:44:52;;;;;;;21.33;15.20;;;8.50;99.90;;;;;;5060058;28;20073;-73
2022/04/15 04:47:19;;;;;;;26.67;17.05;;;8.50;99.90;;;;;;5071040;28;20155;-73
2022/04/15 04:49:45;;;;;;;20.13;16.33;;;8.50;99.90;;;;;;5070233;28;20147;-72
2022/04/15 04:52:11;;;;;;;20.75;16.55;;;8.40;99.90;;;;;;5070892;28;20079;-73
2022/04/15 04:54:38;;;;;;;17.65;15.48;;;8.50;99.90;;;;;;5070863;28;20082;-73
2022/04/15 04:57:03;;;;;;;20.15;15.23;;;8.40;99.90;;;;;;5068141;28;20052;-72
2022/04/15 04:59:31;;;;;;;24.13;16.00;;;8.40;99.90;;;;;;5065813;28;20055;-72
2022/04/15 05:01:57;;;;;;;20.35;16.02;;;8.40;99.90;;;;;;5062376;28;20049;-72
2022/04/15 05:04:22;;;;;;;19.90;15.45;;;8.40;99.90;;;;;;5066793;28;20062;-72
2022/04/15 05:06:48;;;;;;;19.70;15.77;;;8.40;99.90;;;;;;5069475;28;20123;-71
2022/04/15 05:09:15;;;;;;;23.92;16.00;;;8.40;99.90;;;;;;5064681;28;20041;-73
2022/04/15 05:11:41;;;;;;;20.83;15.60;;;8.40;99.90;;;;;;5065645;28;20056;-74
2022/04/15 05:14:07;;;;;;;21.50;15.70;;;8.40;99.90;;;;;;5052934;28;20050;-73
2022/04/15 05:16:34;;;;;;;20.45;15.57;;;8.30;99.90;;;;;;5069647;28;20463;-73
2022/04/15 05:18:59;;;;;;;19.40;14.35;;;8.40;99.90;;;;;;5065515;28;20537;-73
2022/04/15 05:21:25;;;;;;;17.95;14.10;;;8.30;99.90;;;;;;5065199;28;20127;-73
2022/04/15 05:23:51;;;;;;;22.85;14.80;;;8.30;99.90;;;;;;5070345;28;20045;-72
2022/04/15 05:26:16;;;;;;;17.85;15.02;;;8.30;99.90;;;;;;5068703;28;20048;-72
2022/04/15 05:28:42;;;;;;;17.23;13.43;;;8.30;99.90;;;;;;5066475;28;20056;-73
2022/04/15 05:31:09;;;;;;;19.33;14.65;;;8.30;99.90;;;;;;5069081;28;20497;-74
2022/04/15 05:33:35;;;;;;;22.08;14.35;;;8.30;99.90;;;;;;5069976;28;20048;-74
2022/04/15 05:36:01;;;;;;;17.05;13.45;;;8.30;99.90;;;;;;5051991;28;20506;-74
2022/04/15 05:38:27;;;;;;;14.90;13.35;;;8.30;99.90;;;;;;5059759;28;20036;-74
2022/04/15 05:40:52;;;;;;;16.83;13.18;;;8.30;99.90;;;;;;5069964;28;20047;-74
2022/04/15 05:43:19;;;;;;;13.95;12.43;;;8.30;99.90;;;;;;5070063;28;20045;-74
2022/04/15 05:45:44;;;;;;;13.88;11.95;;;8.20;99.90;;;;;;5050326;28;20410;-74
2022/04/15 05:48:10;;;;;;;15.48;12.30;;;8.30;99.90;;;;;;5064441;28;20052;-74
2022/04/15 05:50:36;;;;;;;15.20;11.65;;;8.30;99.90;;;;;;5068342;28;20135;-74
2022/04/15 05:53:01;;;;;;;13.07;11.48;;;8.30;99.90;;;;;;5064271;28;20041;-73
2022/04/15 05:55:27;;;;;;;13.57;10.73;;;8.30;99.90;;;;;;5069950;28;20056;-74
2022/04/15 05:57:52;;;;;;;16.48;11.80;;;8.30;99.90;;;;;;5075242;28;20082;-74
2022/04/15 06:00:19;;;;;;;14.05;11.57;;;8.30;99.90;;;;;;5087238;28;20039;-74
2022/04/15 06:02:45;;;;;;;13.90;10.10;;;8.30;99.90;;;;;;5069335;28;20174;-74
2022/04/15 06:05:11;;;;;;;16.23;13.30;;;8.30;99.90;;;;;;5068961;28;20540;-74
2022/04/15 06:07:37;;;;;;;17.50;12.88;;;8.30;99.90;;;;;;5066300;28;20501;-73
2022/04/15 06:10:04;;;;;;;16.58;14.35;;;8.30;99.90;;;;;;5054617;28;20083;-73
2022/04/15 06:13:00;;;;;;;17.98;14.77;;;8.20;99.90;;;;;;5048771;28;20579;-74
2022/04/15 06:15:23;;;;;;;23.25;14.65;;;8.30;99.90;;;;;;5068080;28;20070;-73
2022/04/15 06:17:50;;;;;;;25.00;14.93;;;8.30;99.90;;;;;;5054268;28;20084;-73
2022/04/15 06:20:17;;;;;;;20.73;15.25;;;8.20;99.90;;;;;;5049688;28;20391;-73
2022/04/15 06:22:43;;;;;;;19.92;14.52;;;8.20;99.90;;;;;;5058532;28;20055;-73
2022/04/15 06:25:09;;;;;;;21.55;13.23;;;8.30;99.90;;;;;;5068929;28;20059;-73
2022/04/15 06:27:35;;;;;;;25.08;14.82;;;8.30;99.90;;;;;;5066693;28;20056;-74
2022/04/15 06:30:01;;;;;;;21.23;14.18;;;8.20;99.90;;;;;;5062984;28;20459;-74
2022/04/15 06:32:26;;;;;;;17.27;13.43;;;8.20;99.90;;;;;;5060901;28;20500;-72
2022/04/15 06:34:52;;;;;;;20.42;14.77;;;8.20;99.90;;;;;;5058125;28;20044;-73
2022/04/15 06:37:18;;;;;;;16.35;12.88;;;8.30;99.90;;;;;;5066928;28;20425;-75
2022/04/15 06:39:45;;;;;;;23.50;13.57;;;8.30;99.90;;;;;;5056295;28;20055;-74
2022/04/15 06:42:11;;;;;;;22.73;14.40;;;8.30;99.90;;;;;;5047913;28;20452;-74
2022/04/15 06:44:37;;;;;;;21.02;13.48;;;8.30;99.90;;;;;;5060455;28;20398;-71
2022/04/15 06:47:03;;;;;;;16.70;12.63;;;8.30;99.90;;;;;;5068445;28;20059;-72
2022/04/15 06:49:29;;;;;;;19.52;14.25;;;8.30;99.90;;;;;;5068561;28;20048;-72
2022/04/15 06:51:55;;;;;;;17.95;13.68;;;8.40;99.90;;;;;;5068759;28;20044;-72
2022/04/15 06:54:20;;;;;;;24.65;15.07;;;8.50;99.90;;;;;;5063931;28;20047;-72
2022/04/15 06:56:46;;;;;;;19.27;14.95;;;8.50;99.90;;;;;;5065369;28;20053;-72
2022/04/15 06:59:11;;;;;;;22.05;15.30;;;8.40;99.90;;;;;;5060592;28;20123;-72
2022/04/15 07:01:37;;;;;;;29.70;16.27;;;8.50;99.90;;;;;;5061986;28;20672;-71
2022/04/15 07:04:04;;;;;;;20.33;15.95;;;8.50;99.90;;;;;;5061551;28;20048;-72
2022/04/15 07:06:30;;;;;;;23.58;15.63;;;8.50;99.90;;;;;;5064649;28;20098;-72
2022/04/15 07:08:55;;;;;;;21.70;15.93;;;8.50;99.90;;;;;;5063197;28;20040;-72
2022/04/15 07:11:21;;;;;;;26.55;18.52;;;8.60;99.90;;;;;;5057773;28;20084;-71
2022/04/15 07:13:48;;;;;;;24.42;16.85;;;8.60;99.90;;;;;;5069021;28;20049;-72
2022/04/15 07:16:15;;;;;;;23.73;16.25;;;8.70;99.90;;;;;;5053274;28;20164;-73
2022/04/15 07:18:41;;;;;;;33.72;21.30;;;8.60;99.90;;;;;;5068464;28;20045;-72
2022/04/15 07:21:06;;;;;;;33.15;20.88;;;8.70;99.90;;;;;;5062398;28;20063;-72
2022/04/15 07:23:32;;;;;;;26.52;19.17;;;8.70;99.90;;;;;;5067387;28;20045;-72
2022/04/15 07:25:59;;;;;;;30.15;19.40;;;8.70;99.90;;;;;;5066938;28;20615;-72
2022/04/15 07:28:24;;;;;;;36.22;20.05;;;8.80;99.90;;;;;;5066571;28;20508;-71
2022/04/15 07:30:50;;;;;;;27.17;19.92;;;8.70;99.90;;;;;;5068470;28;20032;-72
2022/04/15 07:33:17;;;;;;;28.30;19.45;;;8.80;99.90;;;;;;5068577;28;20098;-71
2022/04/15 07:35:43;;;;;;;30.20;19.63;;;8.80;99.90;;;;;;5066109;28;20131;-73
2022/04/15 07:38:08;;;;;;;30.60;19.98;;;8.80;99.90;;;;;;5063614;28;20120;-73
2022/04/15 07:40:34;;;;;;;30.92;21.30;;;8.90;99.90;;;;;;5066864;28;20036;-74
2022/04/15 07:43:01;;;;;;;33.15;21.27;;;8.90;99.90;;;;;;5069511;28;20048;-72
2022/04/15 07:45:28;;;;;;;31.52;20.00;;;9.00;99.90;;;;;;5067419;28;20057;-72
2022/04/15 07:47:54;;;;;;;30.92;19.60;;;9.00;99.90;;;;;;5069294;28;20091;-73
2022/04/15 07:50:25;;;;;;;40.65;21.50;;;9.00;99.90;;;;;;5062605;28;20477;-75
2022/04/15 07:52:56;;;;;;;31.90;21.27;;;9.10;99.90;;;;;;5068108;28;20068;-74
2022/04/15 07:55:21;;;;;;;37.33;23.30;;;9.10;99.90;;;;;;5067654;28;20055;-74
2022/04/15 07:57:48;;;;;;;45.67;22.70;;;9.10;99.90;;;;;;5067929;28;20056;-74
2022/04/15 08:00:14;;;;;;;40.35;23.40;;;9.10;99.90;;;;;;5068370;28;20566;-74
2022/04/15 08:02:40;;;;;;;37.95;25.42;;;9.10;99.90;;;;;;5068692;28;20118;-73
2022/04/15 08:05:07;;;;;;;40.78;24.83;;;9.20;99.90;;;;;;5069604;28;20047;-74
2022/04/15 08:07:32;;;;;;;49.28;24.88;;;9.10;99.90;;;;;;5065476;28;20049;-74
2022/04/15 08:09:58;;;;;;;37.50;22.95;;;9.10;99.90;;;;;;5045234;28;20047;-73
2022/04/15 08:12:24;;;;;;;31.98;22.27;;;9.10;99.90;;;;;;5059885;28;20106;-73
2022/04/15 08:14:49;;;;;;;33.35;21.50;;;9.10;99.90;;;;;;5070068;28;20694;-73
2022/04/15 08:17:15;;;;;;;38.05;22.95;;;9.10;99.90;;;;;;5069546;28;20037;-73
2022/04/15 08:19:41;;;;;;;34.60;19.80;;;9.10;99.90;;;;;;5072128;28;20037;-73
2022/04/15 08:22:09;;;;;;;26.13;17.75;;;9.10;99.90;;;;;;5070397;28;20454;-73
2022/04/15 08:24:42;;;;;;;30.83;18.23;;;9.10;99.90;;;;;;5072590;28;20044;-73
2022/04/15 08:27:12;;;;;;;23.40;17.27;;;9.10;99.90;;;;;;5076149;28;20040;-73
2022/04/15 08:29:38;;;;;;;27.17;18.23;;;9.00;99.90;;;;;;5073349;28;20115;-73
2022/04/15 08:32:08;;;;;;;30.35;18.38;;;9.10;99.90;;;;;;5070407;28;20048;-74
2022/04/15 08:34:36;;;;;;;23.98;17.63;;;9.00;99.90;;;;;;5066418;28;20056;-73
2022/04/15 08:37:01;;;;;;;23.50;17.15;;;9.00;99.90;;;;;;5049156;28;20518;-73
2022/04/15 08:39:27;;;;;;;26.35;16.10;;;8.90;99.90;;;;;;5057987;28;20052;-73
2022/04/15 08:41:54;;;;;;;21.58;16.48;;;8.90;99.90;;;;;;5072029;28;20041;-73
2022/04/15 08:44:22;;;;;;;25.00;14.82;;;9.00;99.90;;;;;;5070564;28;20045;-73
2022/04/15 08:46:49;;;;;;;38.67;18.55;;;9.00;99.90;;;;;;5071538;28;20521;-72
2022/04/15 08:49:19;;;;;;;24.33;14.52;;;9.10;99.90;;;;;;5072229;28;20059;-73
2022/04/15 08:51:47;;;;;;;17.38;14.02;;;9.10;99.90;;;;;;5071145;28;20048;-74
2022/04/15 08:54:13;;;;;;;17.17;13.00;;;9.20;99.90;;;;;;5071082;28;20041;-73
2022/04/15 08:56:39;;;;;;;16.25;13.20;;;9.20;99.90;;;;;;5061584;28;20453;-74
2022/04/15 08:59:05;;;;;;;19.00;12.57;;;9.20;99.90;;;;;;5069514;28;20080;-73
2022/04/15 09:01:32;;;;;;;21.48;14.15;;;9.20;99.90;;;;;;5069859;28;20040;-74
2022/04/15 09:04:00;;;;;;;19.15;15.77;;;9.20;99.90;;;;;;5067134;28;20125;-74
2022/04/15 09:06:32;;;;;;;31.45;16.13;;;9.20;99.90;;;;;;5069997;28;20040;-74
2022/04/15 09:09:11;;;;;;;23.42;16.65;;;9.20;99.90;;;;;;5066850;28;20494;-74
2022/04/15 09:11:38;;;;;;;22.23;16.88;;;9.30;99.90;;;;;;5064222;28;20051;-74
2022/04/15 09:14:10;;;;;;;28.75;18.15;;;9.20;99.90;;;;;;5050868;28;20094;-74
2022/04/15 09:16:54;;;;;;;31.23;20.20;;;9.20;99.90;;;;;;5064769;28;20060;-74
2022/04/15 09:19:20;;;;;;;27.95;17.15;;;9.30;99.90;;;;;;5056097;28;20047;-74
2022/04/15 09:21:58;;;;;;;22.33;15.10;;;9.50;99.90;;;;;;5051865;28;20045;-73
2022/04/15 09:24:36;;;;;;;23.80;16.23;;;9.50;99.90;;;;;;5063113;28;20135;-71
2022/04/15 09:27:07;;;;;;;33.05;15.23;;;9.70;99.90;;;;;;5071107;28;20084;-74
2022/04/15 09:29:38;;;;;;;20.48;14.55;;;9.80;99.90;;;;;;5070159;28;20051;-74
2022/04/15 09:32:08;;;;;;;17.83;13.77;;;9.90;99.90;;;;;;5071867;28;20123;-74
2022/04/15 09:34:34;;;;;;;23.48;14.45;;;10.00;99.90;;;;;;5071598;28;20064;-74
2022/04/15 09:37:06;;;;;;;19.60;14.30;;;10.10;99.90;;;;;;5070783;28;20044;-74
2022/04/15 09:39:31;;;;;;;21.35;14.43;;;10.20;99.90;;;;;;5068639;28;20505;-72
2022/04/15 09:41:57;;;;;;;23.92;14.73;;;10.30;99.90;;;;;;5065236;28;20049;-74
2022/04/15 09:44:31;;;;;;;22.48;14.55;;;10.30;99.90;;;;;;5069392;28;20055;-71
2022/04/15 09:46:57;;;;;;;28.30;15.48;;;10.40;99.90;;;;;;5063293;28;20044;-73
2022/04/15 09:49:25;;;;;;;17.75;13.25;;;10.50;99.90;;;;;;5071080;28;20067;-73
2022/04/15 09:51:53;;;;;;;24.67;14.90;;;10.60;99.90;;;;;;5063064;28;20442;-74
2022/04/15 09:54:28;;;;;;;22.45;14.95;;;10.60;99.90;;;;;;5070443;28;20155;-73
2022/04/15 09:56:57;;;;;;;21.20;16.08;;;10.70;99.90;;;;;;5067996;28;20470;-74
2022/04/15 09:59:27;;;;;;;18.92;14.45;;;10.80;99.90;;;;;;5066585;28;20047;-69
2022/04/15 10:02:04;;;;;;;17.48;14.27;;;11.00;99.90;;;;;;5068681;28;20051;-73
2022/04/15 10:04:30;;;;;;;28.95;15.73;;;11.10;99.90;;;;;;5069376;28;20135;-73
2022/04/15 10:06:56;;;;;;;16.05;12.65;;;11.20;99.90;;;;;;5068164;28;20048;-74
2022/04/15 10:09:22;;;;;;;19.02;14.50;;;11.20;99.90;;;;;;5051800;28;20465;-73
2022/04/15 10:11:49;;;;;;;17.23;13.45;;;11.20;99.90;;;;;;5062529;28;20044;-73
2022/04/15 10:14:16;;;;;;;23.17;14.27;;;11.20;99.90;;;;;;5068003;28;20044;-71
2022/04/15 10:16:43;;;;;;;26.37;15.03;;;11.20;99.90;;;;;;5068969;28;20047;-72
2022/04/15 10:19:11;;;;;;;22.23;15.75;;;11.00;99.90;;;;;;5065851;28;20299;-71
2022/04/15 10:21:39;;;;;;;15.00;12.13;;;11.10;99.90;;;;;;5050058;28;20036;-71
2022/04/15 10:24:08;;;;;;;19.75;14.00;;;11.20;99.90;;;;;;5060172;28;20044;-72
2022/04/15 10:26:58;;;;;;;24.10;14.32;;;11.10;99.90;;;;;;5061973;28;20045;-72
2022/04/15 10:29:24;;;;;;;21.63;13.95;;;11.10;99.90;;;;;;5056689;28;20513;-72
2022/04/15 10:31:49;;;;;;;16.45;14.18;;;11.10;99.90;;;;;;5067200;28;20052;-74
2022/04/15 10:34:17;;;;;;;18.20;13.48;;;11.00;99.90;;;;;;5067899;28;20455;-74
2022/04/15 10:37:01;;;;;;;19.15;13.98;;;11.00;99.90;;;;;;5067942;28;20749;-73
2022/04/15 10:39:27;;;;;;;19.55;13.27;;;11.00;99.90;;;;;;5056062;28;20048;-70
2022/04/15 10:41:56;;;;;;;16.27;12.07;;;11.10;99.90;;;;;;5067384;28;20409;-73
2022/04/15 10:44:42;;;;;;;16.83;13.57;;;11.20;99.90;;;;;;5069462;28;20059;-73
2022/04/15 10:47:10;;;;;;;17.25;13.88;;;11.30;99.90;;;;;;5068605;28;20041;-73
2022/04/15 10:49:58;;;;;;;23.98;15.20;;;11.30;99.90;;;;;;5053500;28;20481;-74
2022/04/15 10:52:26;;;;;;;17.27;13.48;;;11.20;99.90;;;;;;5059913;28;20067;-74
2022/04/15 10:54:59;;;;;;;21.02;15.35;;;11.10;99.90;;;;;;5049452;28;20739;-74
2022/04/15 10:57:37;;;;;;;22.15;14.82;;;11.00;99.90;;;;;;5063935;28;20187;-73
2022/04/15 11:03:18;;;;;;;18.60;14.80;;;11.20;99.90;;;;;;5065528;28;20131;-73
2022/04/15 11:05:43;;;;;;;21.77;14.43;;;11.20;99.90;;;;;;5052957;28;20128;-74
2022/04/15 11:08:14;;;;;;;21.73;14.80;;;11.40;99.90;;;;;;5068281;28;20126;-73
2022/04/15 11:10:44;;;;;;;32.35;14.18;;;11.40;99.90;;;;;;5066003;28;20175;-73
2022/04/15 11:13:29;;;;;;;18.92;15.50;;;11.50;99.90;;;;;;5061926;28;20128;-74
2022/04/15 11:16:11;;;;;;;21.20;15.57;;;11.40;99.90;;;;;;5064099;28;20049;-73
2022/04/15 11:18:43;;;;;;;17.95;14.57;;;11.50;99.90;;;;;;5068737;28;20056;-73
2022/04/15 11:21:32;;;;;;;23.20;16.98;;;11.40;99.90;;;;;;5067841;28;20529;-73
2022/04/15 11:24:13;;;;;;;19.48;15.95;;;11.30;99.90;;;;;;5068146;28;20052;-72
2022/04/15 11:26:42;;;;;;;21.30;15.48;;;11.20;99.90;;;;;;5066743;28;20045;-72
2022/04/15 11:29:11;;;;;;;19.27;14.45;;;11.10;99.90;;;;;;5068000;28;20044;-73
2022/04/15 11:31:41;;;;;;;23.80;16.20;;;11.20;99.90;;;;;;5066669;28;20052;-72
2022/04/15 11:34:09;;;;;;;16.90;15.07;;;11.10;99.90;;;;;;5058881;28;20041;-72
2022/04/15 11:36:40;;;;;;;28.17;16.00;;;11.10;99.90;;;;;;5062641;28;20401;-72
2022/04/15 11:39:07;;;;;;;26.08;17.20;;;11.00;99.90;;;;;;5049781;28;20052;-73
2022/04/15 11:41:44;;;;;;;19.48;14.90;;;11.10;99.90;;;;;;5068166;28;20064;-73
2022/04/15 11:44:10;;;;;;;21.02;14.93;;;11.10;99.90;;;;;;5069988;28;20094;-71
2022/04/15 11:46:36;;;;;;;22.80;16.02;;;11.10;99.90;;;;;;5071872;28;20101;-72
2022/04/15 11:49:15;;;;;;;20.05;14.13;;;11.10;99.90;;;;;;5067936;28;20052;-73
2022/04/15 11:51:52;;;;;;;22.05;16.75;;;11.20;99.90;;;;;;5067906;28;20063;-73
2022/04/15 11:54:22;;;;;;;22.60;17.58;;;11.00;99.90;;;;;;5064102;28;20533;-73
2022/04/15 11:56:53;;;;;;;30.13;18.88;;;10.80;99.90;;;;;;5050038;28;20065;-73
2022/04/15 11:59:19;;;;;;;21.08;16.67;;;10.70;99.90;;;;;;5064589;28;20056;-73
2022/04/15 12:01:44;;;;;;;30.83;17.58;;;10.60;99.90;;;;;;5057088;28;20037;-71
2022/04/15 12:04:10;;;;;;;26.85;17.45;;;10.60;99.90;;;;;;5071792;28;20044;-70
2022/04/15 12:06:41;;;;;;;28.42;15.68;;;10.80;99.90;;;;;;5067125;28;20045;-71
2022/04/15 12:09:11;;;;;;;24.92;15.60;;;10.90;99.90;;;;;;5051864;28;20048;-69
2022/04/15 12:11:38;;;;;;;24.30;16.15;;;10.90;99.90;;;;;;5059085;28;20048;-72
2022/04/15 12:14:06;;;;;;;27.52;16.48;;;11.00;99.90;;;;;;5069928;28;20147;-72
2022/04/15 12:16:35;;;;;;;30.08;16.77;;;11.00;99.90;;;;;;5070790;28;20122;-73
2022/04/15 12:19:02;;;;;;;19.17;14.35;;;11.00;99.90;;;;;;5061848;28;20041;-72
2022/04/15 12:21:30;;;;;;;20.95;14.95;;;10.90;99.90;;;;;;5071486;28;20040;-72
2022/04/15 12:24:17;;;;;;;29.13;16.20;;;11.00;99.90;;;;;;5069876;28;20731;-72
2022/04/15 12:26:54;;;;;;;17.90;14.57;;;10.90;99.90;;;;;;5071005;28;20086;-72
2022/04/15 12:32:19;;;;;;;24.30;14.57;;;11.00;99.90;;;;;;5069749;28;20056;-72
2022/04/15 12:34:47;;;;;;;19.02;13.95;;;11.10;99.90;;;;;;5069838;28;20088;-72
2022/04/15 12:37:34;;;;;;;23.15;14.98;;;11.10;99.90;;;;;;5070856;28;20044;-73
2022/04/15 12:40:08;;;;;;;21.30;14.77;;;11.10;99.90;;;;;;5070046;28;20056;-72
2022/04/15 12:42:36;;;;;;;20.65;15.80;;;11.20;99.90;;;;;;5068622;28;20049;-72
2022/04/15 12:45:10;;;;;;;17.15;15.30;;;11.10;99.90;;;;;;5050267;28;20498;-72